KBWG/BWG METAR and TAF weather

Enter ICAO airport designator
Station Type Date Time Source
KBWG METAR 2019/10/21 01:53 UTC NOAA

KBWG 210153Z AUTO 00000KT 10SM CLR 16/12 A2992 RMK AO2 SLP130 T01560122


Station Type Date Time Source
KBWG Decoded METAR 2019/10/21 01:53 UTC NOAA

BOWLING GREEN-WARREN CO RGNL, KY, United States (KBWG) 36-58N 086-25W 161M
Oct 20, 2019 - 09:53 PM EDT / 2019.10.21 0153 UTC
Wind: Calm:0
Visibility: 10 mile(s):0
Sky conditions: clear
Temperature: 60.1 F (15.6 C)
Dew Point: 54.0 F (12.2 C)
Relative Humidity: 80%
Pressure (altimeter): 29.92 in. Hg (1013 hPa)
ob: KBWG 210153Z AUTO 00000KT 10SM CLR 16/12 A2992 RMK AO2 SLP130 T01560122
cycle: 2

Station Type Date Time Source
KBWG TAF 2019/10/20 18:22 UTC NOAA

TAF KBWG 201720Z 2018/2118 VRB05KT P6SM BKN022
FM201900 VRB05KT P6SM BKN060
FM210000 VRB03KT P6SM SCT100
FM210600 15008KT P6SM BKN050 PROB30 2108/2112 6SM -SHRA
FM211400 19015G28KT 6SM SHRA VCTS BKN018CB OVC035

Example: see airport list